Time;durP1;ratioP1;P1;durP2;ratioP2;P2;SDS_P1;SDS_P2;PMS_P1;PMS_P2;Temp;Humidity;BMP_temperature;BMP_pressure;BME280_temperature;BME280_humidity;BME280_pressure;Samples;Min_cycle;Max_cycle;Signal;HPM_P1;HPM_P2
2023/04/14 00:01:40;;;;;;;7.90;5.55;;;5.90;99.90;;;;;;4929518;29;20044;-74
2023/04/14 00:04:06;;;;;;;7.60;5.75;;;5.90;99.90;;;;;;4928728;29;20036;-74
2023/04/14 00:06:32;;;;;;;7.05;5.18;;;5.90;99.90;;;;;;4929374;29;20531;-74
2023/04/14 00:08:57;;;;;;;6.57;5.53;;;5.90;99.90;;;;;;4929840;29;20038;-75
2023/04/14 00:11:23;;;;;;;7.05;5.45;;;6.00;99.90;;;;;;4931008;29;20473;-76
2023/04/14 00:13:49;;;;;;;6.15;4.65;;;5.90;99.90;;;;;;4928951;29;20095;-73
2023/04/14 00:16:14;;;;;;;5.60;4.30;;;5.90;99.90;;;;;;4929384;29;20032;-75
2023/04/14 00:18:40;;;;;;;3.85;3.45;;;5.90;99.90;;;;;;4927433;29;20059;-74
2023/04/14 00:21:06;;;;;;;4.43;3.40;;;6.60;99.90;;;;;;4927398;29;20032;-74
2023/04/14 00:23:31;;;;;;;4.53;3.22;;;5.80;99.90;;;;;;4922982;29;20040;-74
2023/04/14 00:25:57;;;;;;;4.25;3.22;;;5.70;99.90;;;;;;4918771;29;20126;-75
2023/04/14 00:28:23;;;;;;;5.07;3.70;;;5.70;99.90;;;;;;4902617;29;20028;-74
2023/04/14 00:30:48;;;;;;;3.22;2.92;;;5.70;99.90;;;;;;4920686;29;20043;-75
2023/04/14 00:33:14;;;;;;;2.83;2.50;;;5.60;99.90;;;;;;4920497;29;20032;-74
2023/04/14 00:35:40;;;;;;;5.13;3.20;;;;;;;;;;4921684;29;20445;-75
2023/04/14 00:38:06;;;;;;;3.70;2.83;;;5.60;99.90;;;;;;4920518;29;20115;-75
2023/04/14 00:40:32;;;;;;;3.33;2.70;;;5.60;99.90;;;;;;4920510;29;20060;-75
2023/04/14 00:42:57;;;;;;;2.53;2.25;;;5.60;99.90;;;;;;4920262;29;20032;-74
2023/04/14 00:45:24;;;;;;;2.20;2.00;;;5.50;99.90;;;;;;4920129;29;20388;-74
2023/04/14 00:47:50;;;;;;;3.10;2.22;;;5.50;99.90;;;;;;4920373;29;20044;-74
2023/04/14 00:50:17;;;;;;;2.50;2.13;;;5.50;99.90;;;;;;4920441;29;20027;-75
2023/04/14 00:52:46;;;;;;;2.83;2.50;;;5.40;99.90;;;;;;4919505;29;20042;-75
2023/04/14 00:55:13;;;;;;;3.25;2.28;;;5.40;99.90;;;;;;4902774;29;20043;-75
2023/04/14 00:57:39;;;;;;;6.85;2.83;;;5.40;99.90;;;;;;4902849;29;20059;-74
2023/04/14 01:00:06;;;;;;;7.30;2.58;;;5.40;99.90;;;;;;4918309;29;20532;-74
2023/04/14 01:02:32;;;;;;;3.60;2.65;;;5.40;99.90;;;;;;4919430;29;20032;-74
2023/04/14 01:04:57;;;;;;;2.38;2.17;;;5.40;99.90;;;;;;4919411;29;20033;-74
2023/04/14 01:07:26;;;;;;;2.05;1.85;;;5.40;99.90;;;;;;4919105;29;20032;-73
2023/04/14 01:09:56;;;;;;;2.47;2.00;;;5.30;99.90;;;;;;4919666;29;20028;-74
2023/04/14 01:12:40;;;;;;;2.45;1.77;;;5.30;99.90;;;;;;4919303;29;20032;-73
2023/04/14 01:15:34;;;;;;;4.20;1.50;;;5.20;99.90;;;;;;4920909;29;20036;-74
2023/04/14 01:18:25;;;;;;;1.98;1.80;;;5.20;99.90;;;;;;4919696;29;20368;-74
2023/04/14 01:20:57;;;;;;;3.15;1.60;;;5.20;99.90;;;;;;4920326;29;20028;-73
2023/04/14 01:23:27;;;;;;;1.73;1.58;;;5.10;99.90;;;;;;4904687;29;20035;-74
2023/04/14 01:26:19;;;;;;;2.95;1.40;;;5.10;99.90;;;;;;4919065;29;20035;-75
2023/04/14 01:29:01;;;;;;;1.90;1.35;;;5.00;99.90;;;;;;4900283;29;20040;-75
2023/04/14 01:31:28;;;;;;;1.10;1.10;;;5.00;99.90;;;;;;4919758;29;20039;-74
2023/04/14 01:34:04;;;;;;;1.20;0.93;;;4.90;99.90;;;;;;4902526;29;20047;-74
2023/04/14 01:36:40;;;;;;;1.00;0.90;;;4.80;99.90;;;;;;4903767;29;20036;-74
2023/04/14 01:39:09;;;;;;;1.00;0.70;;;4.80;99.90;;;;;;4903520;29;20354;-75
2023/04/14 01:41:41;;;;;;;0.73;0.68;;;4.70;99.90;;;;;;4920486;29;20056;-75
2023/04/14 01:44:08;;;;;;;1.00;0.50;;;4.60;99.90;;;;;;4920127;29;20036;-75
2023/04/14 01:46:35;;;;;;;3.03;0.40;;;4.50;99.90;;;;;;4921653;29;20059;-75
2023/04/14 01:49:01;;;;;;;0.95;0.60;;;4.50;99.90;;;;;;4904757;29;20091;-75
2023/04/14 01:51:29;;;;;;;2.38;0.55;;;4.50;99.90;;;;;;4922458;29;20115;-75
2023/04/14 01:53:57;;;;;;;1.75;0.80;;;4.40;99.90;;;;;;4905205;29;20043;-75
2023/04/14 01:56:25;;;;;;;0.98;0.57;;;4.40;99.90;;;;;;4905148;29;20039;-74
2023/04/14 01:58:53;;;;;;;1.30;0.50;;;4.30;99.90;;;;;;4921226;29;20028;-75
2023/04/14 02:01:19;;;;;;;0.73;0.73;;;4.30;99.90;;;;;;4922281;29;20127;-75
2023/04/14 02:03:48;;;;;;;3.40;0.95;;;4.20;99.90;;;;;;4919604;29;20123;-75
2023/04/14 02:06:16;;;;;;;20.25;1.95;;;4.20;99.90;;;;;;4917462;29;20123;-75
2023/04/14 02:08:42;;;;;;;0.77;0.57;;;4.10;99.90;;;;;;4901287;29;20038;-76
2023/04/14 02:11:11;;;;;;;2.80;0.70;;;4.10;99.90;;;;;;4901120;29;20033;-76
2023/04/14 02:13:39;;;;;;;2.65;0.90;;;4.00;99.90;;;;;;4917920;29;20064;-75
2023/04/14 02:16:07;;;;;;;0.90;0.88;;;4.00;99.90;;;;;;4917849;29;20111;-75
2023/04/14 02:18:35;;;;;;;0.60;0.60;;;3.90;99.90;;;;;;4901044;29;20384;-75
2023/04/14 02:21:03;;;;;;;0.90;0.80;;;3.90;99.90;;;;;;4916799;29;20032;-75
2023/04/14 02:23:29;;;;;;;0.98;0.70;;;3.80;99.90;;;;;;4918556;29;20107;-75
2023/04/14 02:26:01;;;;;;;0.90;0.80;;;4.40;99.90;;;;;;4918242;29;20135;-76
2023/04/14 02:28:50;;;;;;;1.58;0.80;;;3.80;99.90;;;;;;4901295;29;20487;-75
2023/04/14 02:31:22;;;;;;;1.60;0.95;;;3.70;99.90;;;;;;4917568;29;20551;-75
2023/04/14 02:33:53;;;;;;;1.08;0.80;;;3.80;99.90;;;;;;4917594;29;20029;-75
2023/04/14 02:36:43;;;;;;;0.82;0.82;;;3.70;99.90;;;;;;4903172;29;20076;-74
2023/04/14 02:39:18;;;;;;;1.10;1.00;;;3.60;99.90;;;;;;4921307;29;20107;-74
2023/04/14 02:41:45;;;;;;;2.45;0.80;;;4.20;99.90;;;;;;4919752;29;20036;-75
2023/04/14 02:44:25;;;;;;;2.15;0.70;;;3.50;99.90;;;;;;4904334;29;20043;-74
2023/04/14 02:47:02;;;;;;;1.10;0.98;;;3.50;99.90;;;;;;4920876;29;20024;-74
2023/04/14 02:49:31;;;;;;;2.25;0.90;;;3.40;99.90;;;;;;4921343;29;20115;-74
2023/04/14 02:51:58;;;;;;;1.10;1.00;;;3.30;99.90;;;;;;4921417;29;20031;-75
2023/04/14 02:54:24;;;;;;;1.42;0.70;;;3.30;99.90;;;;;;4919678;29;20046;-74
2023/04/14 02:56:50;;;;;;;0.95;0.80;;;3.20;99.90;;;;;;4921194;29;20032;-74
2023/04/14 02:59:18;;;;;;;0.60;0.60;;;3.20;99.90;;;;;;4920247;29;20031;-74
2023/04/14 03:01:45;;;;;;;0.90;0.43;;;3.10;99.90;;;;;;4920794;29;20028;-75
2023/04/14 03:04:12;;;;;;;0.50;0.50;;;3.10;99.90;;;;;;4920538;29;20036;-75
2023/04/14 03:06:39;;;;;;;1.15;0.52;;;3.00;99.90;;;;;;4904210;29;20184;-75
2023/04/14 03:09:06;;;;;;;2.03;0.52;;;2.90;99.90;;;;;;4920086;29;20055;-75
2023/04/14 03:11:32;;;;;;;2.67;0.60;;;2.80;99.90;;;;;;4920697;29;20456;-75
2023/04/14 03:13:59;;;;;;;0.70;0.60;;;3.40;99.90;;;;;;4920473;29;20036;-75
2023/04/14 03:16:26;;;;;;;0.75;0.60;;;2.70;99.90;;;;;;4904020;29;20468;-75
2023/04/14 03:18:53;;;;;;;0.75;0.65;;;2.60;99.90;;;;;;4920565;29;20028;-74
2023/04/14 03:21:20;;;;;;;0.45;0.43;;;2.50;99.90;;;;;;4903957;29;20388;-75
2023/04/14 03:23:47;;;;;;;0.50;0.40;;;2.50;99.90;;;;;;4920660;29;20080;-75
2023/04/14 03:26:17;;;;;;;0.40;0.20;;;2.50;99.90;;;;;;4903907;29;20457;-75
2023/04/14 03:28:46;;;;;;;0.20;0.20;;;2.50;99.90;;;;;;4904131;29;20062;-75
2023/04/14 03:31:13;;;;;;;0.25;0.15;;;2.40;99.90;;;;;;4903608;29;20050;-75
2023/04/14 03:33:42;;;;;;;0.30;0.20;;;3.60;99.90;;;;;;4903527;29;20135;-75
2023/04/14 03:36:09;;;;;;;;;;;2.30;99.90;;;;;;4920919;29;20051;-75
2023/04/14 03:38:35;;;;;;;0.38;0.10;;;2.30;99.90;;;;;;4920449;29;20001;-75
2023/04/14 03:41:04;;;;;;;0.32;0.20;;;2.30;99.90;;;;;;4903308;29;20035;-75
2023/04/14 03:43:32;;;;;;;1.00;0.10;;;2.20;99.90;;;;;;4920467;29;20060;-75
2023/04/14 03:45:58;;;;;;;0.10;0.10;;;2.30;99.90;;;;;;4903177;29;20029;-75
2023/04/14 03:48:26;;;;;;;0.10;0.10;;;2.30;99.90;;;;;;4918249;29;20028;-75
2023/04/14 03:50:53;;;;;;;0.20;0.20;;;2.30;99.90;;;;;;4918863;29;20039;-75
2023/04/14 03:53:20;;;;;;;0.30;0.10;;;2.30;99.90;;;;;;4918899;29;20036;-75
2023/04/14 03:55:48;;;;;;;0.20;0.10;;;2.30;99.90;;;;;;4903082;29;20384;-75
2023/04/14 03:58:16;;;;;;;1.08;0.38;;;3.80;99.90;;;;;;4920274;29;20035;-75
2023/04/14 04:00:42;;;;;;;0.35;0.25;;;2.30;99.90;;;;;;4922607;29;20051;-76
2023/04/14 04:03:09;;;;;;;0.40;0.30;;;2.30;99.90;;;;;;4924414;29;20043;-75
2023/04/14 04:05:38;;;;;;;0.35;0.10;;;2.30;99.90;;;;;;4907240;29;20028;-75
2023/04/14 04:08:04;;;;;;;;;;;2.20;99.90;;;;;;4924512;29;20071;-75
2023/04/14 04:10:33;;;;;;;0.65;0.20;;;2.30;99.90;;;;;;4919982;29;19911;-74
2023/04/14 04:13:01;;;;;;;0.10;0.10;;;2.30;99.90;;;;;;4903011;29;20040;-75
2023/04/14 04:15:29;;;;;;;0.20;0.10;;;2.20;99.90;;;;;;4919754;29;20112;-74
2023/04/14 04:17:57;;;;;;;1.02;0.20;;;2.20;99.90;;;;;;4918457;29;20092;-74
2023/04/14 04:20:24;;;;;;;0.20;0.00;;;2.20;99.90;;;;;;4903168;29;20063;-74
2023/04/14 04:22:51;;;;;;;0.00;0.00;;;2.20;99.90;;;;;;4919962;29;20032;-75
2023/04/14 04:25:17;;;;;;;0.35;0.10;;;2.20;99.90;;;;;;4919179;29;20426;-75
2023/04/14 04:27:43;;;;;;;0.20;0.13;;;2.20;99.90;;;;;;4902470;29;20067;-75
2023/04/14 04:30:10;;;;;;;3.03;1.60;;;2.20;99.90;;;;;;4919973;29;20111;-75
2023/04/14 04:32:37;;;;;;;0.20;0.10;;;2.20;99.90;;;;;;4918661;29;20387;-75
2023/04/14 04:35:05;;;;;;;0.10;0.00;;;2.20;99.90;;;;;;4920206;29;20059;-74
2023/04/14 04:37:32;;;;;;;0.00;0.00;;;2.20;99.90;;;;;;4917939;29;20032;-74
2023/04/14 04:39:58;;;;;;;0.40;0.22;;;2.20;99.90;;;;;;4919422;29;20465;-73
2023/04/14 04:42:23;;;;;;;0.68;0.10;;;2.20;99.90;;;;;;4918686;29;20032;-74
2023/04/14 04:44:50;;;;;;;1.08;0.10;;;2.20;99.90;;;;;;4918971;29;20035;-74
2023/04/14 04:47:16;;;;;;;0.40;0.10;;;2.20;99.90;;;;;;4902026;29;20553;-75
2023/04/14 04:49:41;;;;;;;0.15;0.10;;;2.20;99.90;;;;;;4918957;29;20036;-74
2023/04/14 04:52:07;;;;;;;0.73;0.30;;;2.20;99.90;;;;;;4924420;29;20079;-73
2023/04/14 04:54:32;;;;;;;0.55;0.10;;;2.20;99.90;;;;;;4934144;29;20035;-74
2023/04/14 04:56:58;;;;;;;0.45;0.20;;;2.20;99.90;;;;;;4935152;29;20024;-74
2023/04/14 04:59:24;;;;;;;0.10;0.00;;;4.30;99.90;;;;;;4933166;29;20483;-75
2023/04/14 05:01:50;;;;;;;0.38;0.20;;;2.20;99.90;;;;;;4934370;29;20023;-74
2023/04/14 05:04:16;;;;;;;0.10;0.10;;;2.30;99.90;;;;;;4920000;29;20448;-75
2023/04/14 05:06:42;;;;;;;0.60;0.30;;;2.20;99.90;;;;;;4926927;29;20111;-74
2023/04/14 05:09:08;;;;;;;1.15;0.28;;;2.60;99.90;;;;;;4937831;29;20468;-74
2023/04/14 05:11:34;;;;;;;1.00;0.20;;;2.70;99.90;;;;;;4937320;29;20036;-74
2023/04/14 05:14:01;;;;;;;0.40;0.40;;;2.30;99.90;;;;;;4920434;29;20066;-74
2023/04/14 05:16:30;;;;;;;0.68;0.30;;;2.20;99.90;;;;;;4937286;29;20472;-74
2023/04/14 05:18:56;;;;;;;0.38;0.38;;;2.20;99.90;;;;;;4937096;29;20031;-74
2023/04/14 05:21:22;;;;;;;0.40;0.38;;;2.20;99.90;;;;;;4937471;29;20024;-75
2023/04/14 05:23:48;;;;;;;0.73;0.40;;;2.20;99.90;;;;;;4937536;29;20032;-75
2023/04/14 05:26:15;;;;;;;0.50;0.30;;;2.30;99.90;;;;;;4920016;29;20028;-75
2023/04/14 05:28:41;;;;;;;1.45;0.40;;;2.20;99.90;;;;;;4937200;29;20024;-76
2023/04/14 05:31:07;;;;;;;0.38;0.38;;;2.30;99.90;;;;;;4937378;29;20031;-75
2023/04/14 05:33:34;;;;;;;0.35;0.32;;;2.30;99.90;;;;;;4937322;29;20035;-74
2023/04/14 05:36:00;;;;;;;0.40;0.40;;;2.30;99.90;;;;;;4937257;29;20492;-74
2023/04/14 05:38:26;;;;;;;0.40;0.40;;;2.30;99.90;;;;;;4937177;29;20035;-75
2023/04/14 05:40:52;;;;;;;0.50;0.47;;;2.40;99.90;;;;;;4937313;29;20028;-73
2023/04/14 05:43:18;;;;;;;2.50;0.70;;;2.30;99.90;;;;;;4923520;29;20059;-75
2023/04/14 05:45:46;;;;;;;0.60;0.60;;;2.40;99.90;;;;;;4924379;29;20036;-78
2023/04/14 05:48:13;;;;;;;0.57;0.57;;;2.40;99.90;;;;;;4940622;29;20028;-74
2023/04/14 05:50:38;;;;;;;0.68;0.47;;;2.40;99.90;;;;;;4940570;29;20028;-75
2023/04/14 05:53:04;;;;;;;1.00;0.75;;;2.40;99.90;;;;;;4922757;29;20127;-74
2023/04/14 05:55:31;;;;;;;0.50;0.50;;;2.40;99.90;;;;;;4938147;29;20432;-75
2023/04/14 05:57:57;;;;;;;3.95;0.95;;;2.40;99.90;;;;;;4937756;29;20114;-75
2023/04/14 06:00:24;;;;;;;0.95;0.60;;;2.40;99.90;;;;;;4937333;29;20496;-74
2023/04/14 06:02:50;;;;;;;1.40;0.93;;;2.40;99.90;;;;;;4937098;29;20027;-74
2023/04/14 06:05:16;;;;;;;1.27;0.95;;;2.50;99.90;;;;;;4937491;29;20380;-74
2023/04/14 06:07:42;;;;;;;2.53;1.60;;;2.50;99.90;;;;;;4919929;29;20028;-73
2023/04/14 06:10:09;;;;;;;1.85;1.10;;;4.20;99.90;;;;;;4937235;29;20063;-73
2023/04/14 06:12:36;;;;;;;1.33;1.20;;;2.60;99.90;;;;;;4923646;29;20090;-74
2023/04/14 06:15:03;;;;;;;2.90;1.63;;;2.70;99.90;;;;;;4922746;29;20028;-75
2023/04/14 06:17:28;;;;;;;0.93;0.93;;;2.60;99.90;;;;;;4940729;29;20032;-74
2023/04/14 06:19:54;;;;;;;1.90;1.10;;;2.70;99.90;;;;;;4923041;29;20535;-74
2023/04/14 06:22:20;;;;;;;0.85;0.85;;;2.70;99.90;;;;;;4940353;29;20023;-74
2023/04/14 06:24:45;;;;;;;1.30;1.20;;;2.70;99.90;;;;;;4940449;29;20040;-74
2023/04/14 06:27:11;;;;;;;3.03;1.30;;;2.60;99.90;;;;;;4939372;29;20031;-74
2023/04/14 06:29:37;;;;;;;1.25;1.15;;;2.60;99.90;;;;;;4922854;29;20071;-74
2023/04/14 06:32:02;;;;;;;0.88;0.88;;;2.60;99.90;;;;;;4940493;29;20032;-74
2023/04/14 06:34:28;;;;;;;1.10;1.00;;;2.60;99.90;;;;;;4940375;29;20039;-74
2023/04/14 06:36:55;;;;;;;1.77;1.40;;;2.70;99.90;;;;;;4923284;29;20023;-74
2023/04/14 06:39:21;;;;;;;0.98;0.98;;;2.70;99.90;;;;;;4940470;29;20027;-74
2023/04/14 06:41:47;;;;;;;2.42;1.30;;;2.70;99.90;;;;;;4940401;29;20024;-74
2023/04/14 06:44:13;;;;;;;2.25;1.20;;;2.70;99.90;;;;;;4940087;29;20449;-74
2023/04/14 06:46:38;;;;;;;1.50;1.40;;;2.70;99.90;;;;;;4940350;29;20036;-73
2023/04/14 06:49:04;;;;;;;0.82;0.82;;;2.70;99.90;;;;;;4939936;29;20460;-74
2023/04/14 06:51:31;;;;;;;1.65;1.25;;;2.70;99.90;;;;;;4940030;29;20091;-73
2023/04/14 06:53:57;;;;;;;1.50;1.40;;;2.80;99.90;;;;;;4923014;29;20474;-74
2023/04/14 06:56:22;;;;;;;1.48;1.38;;;2.80;99.90;;;;;;4923026;29;20036;-73
2023/04/14 06:58:48;;;;;;;1.40;1.30;;;2.80;99.90;;;;;;4940021;29;20059;-73
2023/04/14 07:01:14;;;;;;;1.17;1.10;;;2.80;99.90;;;;;;4922457;29;20051;-73
2023/04/14 07:03:39;;;;;;;4.55;1.65;;;2.80;99.90;;;;;;4939955;29;20038;-73
2023/04/14 07:06:09;;;;;;;2.28;1.13;;;2.80;99.90;;;;;;4922862;29;20032;-72
2023/04/14 07:08:35;;;;;;;1.65;1.52;;;2.80;99.90;;;;;;4940058;29;20030;-73
2023/04/14 07:11:04;;;;;;;1.83;1.58;;;2.80;99.90;;;;;;4922974;29;20464;-75
2023/04/14 07:13:29;;;;;;;1.75;1.40;;;3.00;99.90;;;;;;4938459;29;20130;-73
2023/04/14 07:15:55;;;;;;;1.63;1.52;;;2.90;99.90;;;;;;4922313;29;20063;-74
2023/04/14 07:18:21;;;;;;;1.52;1.20;;;2.90;99.90;;;;;;4939733;29;20033;-76
2023/04/14 07:20:56;;;;;;;1.85;1.58;;;3.00;99.90;;;;;;4939706;29;20047;-74
2023/04/14 07:23:22;;;;;;;1.38;1.27;;;3.00;99.90;;;;;;4921595;29;20390;-74
2023/04/14 07:25:52;;;;;;;2.40;2.15;;;3.00;99.90;;;;;;4938329;29;20024;-74
2023/04/14 07:28:19;;;;;;;2.20;1.58;;;3.10;99.90;;;;;;4939834;29;20024;-74
2023/04/14 07:30:44;;;;;;;2.47;1.95;;;3.10;99.90;;;;;;4939250;29;20031;-75
2023/04/14 07:33:11;;;;;;;2.45;1.98;;;3.10;99.90;;;;;;4922403;29;20040;-75
2023/04/14 07:35:37;;;;;;;3.60;2.25;;;3.10;99.90;;;;;;4938071;29;20106;-74
2023/04/14 07:38:03;;;;;;;3.63;2.03;;;3.20;99.90;;;;;;4939425;29;20429;-70
2023/04/14 07:40:28;;;;;;;2.38;2.10;;;3.20;99.90;;;;;;4939165;29;20118;-70
2023/04/14 07:42:54;;;;;;;2.85;1.90;;;3.30;99.90;;;;;;4922022;29;20384;-74
2023/04/14 07:45:20;;;;;;;2.80;1.80;;;3.20;99.90;;;;;;4939211;29;20031;-74
2023/04/14 07:47:45;;;;;;;1.70;1.60;;;5.00;99.90;;;;;;4938978;29;20043;-74
2023/04/14 07:50:11;;;;;;;2.20;1.63;;;3.10;99.90;;;;;;4938396;29;20039;-74
2023/04/14 07:52:37;;;;;;;2.90;1.80;;;4.30;99.90;;;;;;4939184;29;20028;-74
2023/04/14 07:55:03;;;;;;;3.30;1.65;;;3.20;99.90;;;;;;4940506;29;20042;-75
2023/04/14 07:57:29;;;;;;;3.13;1.55;;;3.10;99.90;;;;;;4941535;29;20035;-74
2023/04/14 07:59:54;;;;;;;2.13;1.38;;;3.10;99.90;;;;;;4923170;29;20051;-75
2023/04/14 08:02:21;;;;;;;2.63;1.67;;;3.10;99.90;;;;;;4937845;29;20119;-74
2023/04/14 08:04:47;;;;;;;2.85;1.50;;;3.20;99.90;;;;;;4921842;29;20035;-74
2023/04/14 08:07:13;;;;;;;1.63;1.52;;;3.20;99.90;;;;;;4938850;29;20023;-74
2023/04/14 08:09:39;;;;;;;1.50;1.40;;;3.20;99.90;;;;;;4921944;29;20477;-75
2023/04/14 08:12:04;;;;;;;2.13;1.90;;;3.10;99.90;;;;;;4938943;29;20060;-74
2023/04/14 08:14:30;;;;;;;1.60;1.50;;;3.10;99.90;;;;;;4938868;29;20119;-74
2023/04/14 08:16:56;;;;;;;3.30;2.00;;;3.10;99.90;;;;;;4922526;29;20038;-74
2023/04/14 08:19:21;;;;;;;2.30;2.08;;;3.10;99.90;;;;;;4938563;29;20131;-74
2023/04/14 08:21:47;;;;;;;1.98;1.40;;;3.10;99.90;;;;;;4921583;29;20175;-73
2023/04/14 08:24:13;;;;;;;1.30;1.30;;;3.10;99.90;;;;;;4938480;29;20055;-74
2023/04/14 08:26:39;;;;;;;1.45;1.35;;;3.10;99.90;;;;;;4921311;29;20087;-74
2023/04/14 08:29:05;;;;;;;1.42;1.30;;;3.10;99.90;;;;;;4938239;29;20028;-74
2023/04/14 08:31:31;;;;;;;1.63;1.52;;;3.20;99.90;;;;;;4938170;29;20031;-74
2023/04/14 08:33:57;;;;;;;2.95;1.35;;;3.10;99.90;;;;;;4937886;29;20035;-74
2023/04/14 08:36:23;;;;;;;2.15;1.58;;;4.80;99.90;;;;;;4938094;29;20482;-74
2023/04/14 08:38:49;;;;;;;2.13;1.10;;;3.10;99.90;;;;;;4938156;29;20039;-74
2023/04/14 08:41:17;;;;;;;2.88;1.13;;;3.00;99.90;;;;;;4921017;29;20024;-74
2023/04/14 08:43:43;;;;;;;1.67;1.10;;;3.00;99.90;;;;;;4938081;29;20130;-74
2023/04/14 08:46:10;;;;;;;0.80;0.80;;;3.00;99.90;;;;;;4937906;29;20472;-74
2023/04/14 08:48:37;;;;;;;2.08;0.85;;;3.00;99.90;;;;;;4921040;29;20047;-75
2023/04/14 08:51:13;;;;;;;2.13;1.15;;;2.90;99.90;;;;;;4937666;29;20032;-75
2023/04/14 08:53:44;;;;;;;1.75;0.93;;;2.90;99.90;;;;;;4937915;29;20039;-74
2023/04/14 08:56:12;;;;;;;1.67;1.10;;;2.90;99.90;;;;;;4937123;29;20395;-74
2023/04/14 08:58:39;;;;;;;3.95;1.58;;;2.80;99.90;;;;;;4938141;29;20091;-75
2023/04/14 09:01:07;;;;;;;2.22;1.10;;;2.90;99.90;;;;;;4938000;29;20048;-74
2023/04/14 09:03:33;;;;;;;0.82;0.82;;;2.80;99.90;;;;;;4921112;29;20044;-74
2023/04/14 09:06:00;;;;;;;1.48;0.93;;;2.80;99.90;;;;;;4937659;29;20090;-75
2023/04/14 09:08:27;;;;;;;1.20;1.10;;;2.80;99.90;;;;;;4920529;29;20542;-74
2023/04/14 09:10:53;;;;;;;1.60;1.00;;;2.80;99.90;;;;;;4920584;29;20023;-75
2023/04/14 09:13:21;;;;;;;1.10;1.00;;;2.70;99.90;;;;;;4936246;29;20036;-74
2023/04/14 09:15:48;;;;;;;1.27;0.80;;;2.80;99.90;;;;;;4937280;29;20376;-75
2023/04/14 09:18:15;;;;;;;1.08;0.80;;;2.70;99.90;;;;;;4920754;29;20039;-74
2023/04/14 09:20:40;;;;;;;1.52;0.80;;;2.70;99.90;;;;;;4920128;29;20115;-74
2023/04/14 09:23:09;;;;;;;1.02;0.47;;;2.70;99.90;;;;;;4920532;29;20131;-74
2023/04/14 09:25:37;;;;;;;1.60;1.15;;;2.70;99.90;;;;;;4937413;29;20032;-75
2023/04/14 09:28:03;;;;;;;1.08;0.65;;;2.70;99.90;;;;;;4937334;29;20020;-75
2023/04/14 09:30:30;;;;;;;1.02;0.57;;;2.70;99.90;;;;;;4936760;29;20372;-74
2023/04/14 09:32:56;;;;;;;1.00;0.68;;;2.60;99.90;;;;;;4937185;29;20032;-74
2023/04/14 09:35:23;;;;;;;0.73;0.73;;;2.60;99.90;;;;;;4936627;29;20090;-75
2023/04/14 09:37:48;;;;;;;1.05;0.43;;;2.60;99.90;;;;;;4937096;29;20035;-75
2023/04/14 09:40:27;;;;;;;0.63;0.63;;;2.50;99.90;;;;;;4920928;29;20375;-62
2023/04/14 09:42:55;;;;;;;0.50;0.50;;;2.60;99.90;;;;;;4936905;29;20036;-60
2023/04/14 09:45:21;;;;;;;0.60;0.60;;;2.90;99.90;;;;;;4936211;29;20383;-61
2023/04/14 09:47:47;;;;;;;0.73;0.57;;;2.70;99.90;;;;;;4936714;29;20477;-62
2023/04/14 09:50:13;;;;;;;0.40;0.40;;;2.80;99.90;;;;;;4936895;29;20028;-74
2023/04/14 09:52:43;;;;;;;0.50;0.40;;;2.80;99.90;;;;;;4937201;29;20432;-76
2023/04/14 09:55:13;;;;;;;0.90;0.47;;;2.60;99.90;;;;;;4936943;29;20488;-74
2023/04/14 09:57:43;;;;;;;1.75;0.40;;;2.60;99.90;;;;;;4919828;29;20035;-74
2023/04/14 10:00:14;;;;;;;1.08;0.50;;;2.50;99.90;;;;;;4936546;29;20048;-74
2023/04/14 10:02:54;;;;;;;0.75;0.38;;;2.50;99.90;;;;;;4936875;29;20035;-74
2023/04/14 10:05:32;;;;;;;0.43;0.30;;;2.50;99.90;;;;;;4936563;29;20019;-73
2023/04/14 10:08:04;;;;;;;0.90;0.40;;;2.50;99.90;;;;;;4937466;29;20031;-74
2023/04/14 10:10:30;;;;;;;0.43;0.30;;;2.50;99.90;;;;;;4935739;29;20428;-73
2023/04/14 10:12:58;;;;;;;0.45;0.30;;;2.50;99.90;;;;;;4936413;29;20110;-73
2023/04/14 10:15:23;;;;;;;0.50;0.47;;;2.50;99.90;;;;;;4937128;29;20458;-73
2023/04/14 10:17:50;;;;;;;0.93;0.30;;;2.50;99.90;;;;;;4936763;29;20038;-73
2023/04/14 10:20:15;;;;;;;2.78;0.57;;;2.60;99.90;;;;;;4935777;29;20028;-73
2023/04/14 10:22:41;;;;;;;0.45;0.45;;;2.50;99.90;;;;;;4936442;29;20495;-73
2023/04/14 10:25:08;;;;;;;1.30;0.75;;;2.50;99.90;;;;;;4936892;29;20060;-74
2023/04/14 10:27:35;;;;;;;1.23;0.55;;;2.50;99.90;;;;;;4919687;29;20122;-73
2023/04/14 10:30:01;;;;;;;0.80;0.40;;;2.50;99.90;;;;;;4919614;29;20491;-73
2023/04/14 10:32:32;;;;;;;1.08;0.50;;;2.50;99.90;;;;;;4936772;29;20027;-73
2023/04/14 10:35:11;;;;;;;0.63;0.63;;;2.50;99.90;;;;;;4919698;29;20428;-73
2023/04/14 10:37:36;;;;;;;0.40;0.30;;;2.50;99.90;;;;;;4936993;29;20035;-72
2023/04/14 10:40:05;;;;;;;1.95;0.40;;;2.50;99.90;;;;;;4936577;29;20071;-74
2023/04/14 10:42:52;;;;;;;1.35;0.52;;;2.50;99.90;;;;;;4903857;29;20031;-73
2023/04/14 10:45:18;;;;;;;0.85;0.25;;;2.50;99.90;;;;;;4934882;29;20147;-74
2023/04/14 10:47:44;;;;;;;0.40;0.40;;;2.40;99.90;;;;;;4936991;29;20032;-73
2023/04/14 10:50:14;;;;;;;1.42;0.73;;;2.50;99.90;;;;;;4919435;29;20024;-74
2023/04/14 10:52:57;;;;;;;0.10;0.10;;;2.40;99.90;;;;;;4936767;29;20028;-74
2023/04/14 10:55:25;;;;;;;0.57;0.50;;;2.40;99.90;;;;;;4919921;29;20031;-74
2023/04/14 10:57:53;;;;;;;0.85;0.47;;;2.50;99.90;;;;;;4922171;29;20034;-74
2023/04/14 11:00:22;;;;;;;1.95;0.70;;;3.40;99.90;;;;;;4922778;29;20074;-74
2023/04/14 11:02:54;;;;;;;0.35;0.20;;;2.50;99.90;;;;;;4939902;29;20030;-73
2023/04/14 11:05:20;;;;;;;0.10;0.10;;;2.50;99.90;;;;;;4922870;29;20123;-73
2023/04/14 11:07:48;;;;;;;1.10;0.20;;;3.80;99.90;;;;;;4939882;29;20449;-74
2023/04/14 11:10:20;;;;;;;1.08;0.28;;;2.50;99.90;;;;;;4939779;29;20031;-74
2023/04/14 11:12:47;;;;;;;0.20;0.20;;;2.50;99.90;;;;;;4939870;29;20028;-74
2023/04/14 11:15:15;;;;;;;0.35;0.35;;;2.50;99.90;;;;;;4939942;29;20123;-74
2023/04/14 11:17:44;;;;;;;0.63;0.40;;;2.50;99.90;;;;;;4939900;29;20058;-74
2023/04/14 11:20:14;;;;;;;1.92;0.50;;;2.50;99.90;;;;;;4940284;29;20052;-74
2023/04/14 11:22:41;;;;;;;0.63;0.40;;;2.50;99.90;;;;;;4939570;29;20357;-74
2023/04/14 11:25:09;;;;;;;0.20;0.20;;;2.50;99.90;;;;;;4939562;29;20035;-74
2023/04/14 11:27:36;;;;;;;0.38;0.38;;;2.60;99.90;;;;;;4939674;29;20020;-74
2023/04/14 11:30:02;;;;;;;0.50;0.38;;;2.60;99.90;;;;;;4939710;29;20039;-74
2023/04/14 11:32:28;;;;;;;0.50;0.40;;;2.60;99.90;;;;;;4922406;29;20361;-74
2023/04/14 11:34:54;;;;;;;0.35;0.28;;;2.60;99.90;;;;;;4939449;29;20035;-71
2023/04/14 11:37:20;;;;;;;0.50;0.40;;;2.70;99.90;;;;;;4939445;29;20385;-75
2023/04/14 11:39:47;;;;;;;0.65;0.40;;;2.80;99.90;;;;;;4939132;29;20035;-75
2023/04/14 11:42:13;;;;;;;0.35;0.30;;;2.80;99.90;;;;;;4922770;29;20041;-75
2023/04/14 11:44:38;;;;;;;0.20;0.15;;;2.80;99.90;;;;;;4938956;29;20048;-74
2023/04/14 11:47:04;;;;;;;0.30;0.20;;;3.40;99.90;;;;;;4939080;29;20032;-75
2023/04/14 11:49:36;;;;;;;1.63;0.50;;;2.80;99.90;;;;;;4937919;29;20114;-75
2023/04/14 11:52:08;;;;;;;0.20;0.17;;;2.80;99.90;;;;;;4922578;29;20118;-75
2023/04/14 11:54:38;;;;;;;0.80;0.32;;;2.70;99.90;;;;;;4922216;29;20040;-75
2023/04/14 11:57:16;;;;;;;1.45;0.28;;;2.70;99.90;;;;;;4938050;29;20358;-75
2023/04/14 11:59:42;;;;;;;0.40;0.30;;;2.80;99.90;;;;;;4922366;29;20408;-75
2023/04/14 12:02:35;;;;;;;0.73;0.38;;;2.80;99.90;;;;;;4922629;29;20028;-75
2023/04/14 12:05:00;;;;;;;0.63;0.20;;;2.80;99.90;;;;;;4918975;29;20044;-75
2023/04/14 12:07:28;;;;;;;1.70;0.40;;;2.80;99.90;;;;;;4937651;29;20482;-74
2023/04/14 12:09:54;;;;;;;2.13;0.35;;;2.80;99.90;;;;;;4937114;29;20031;-74
2023/04/14 12:12:19;;;;;;;2.20;0.52;;;2.80;99.90;;;;;;4938788;29;20024;-75
2023/04/14 12:14:47;;;;;;;0.40;0.40;;;2.80;99.90;;;;;;4938707;29;20091;-75
2023/04/14 12:17:14;;;;;;;0.32;0.32;;;2.80;99.90;;;;;;4921698;29;20475;-74
2023/04/14 12:19:41;;;;;;;1.02;0.50;;;2.80;99.90;;;;;;4921467;29;20028;-74
2023/04/14 12:22:08;;;;;;;0.50;0.50;;;2.80;99.90;;;;;;4939195;29;20031;-74
2023/04/14 12:24:34;;;;;;;0.70;0.60;;;2.90;99.90;;;;;;4939563;29;20038;-74
2023/04/14 12:27:03;;;;;;;0.63;0.50;;;2.90;99.90;;;;;;4938959;29;20106;-72
2023/04/14 12:29:30;;;;;;;0.82;0.55;;;3.30;99.90;;;;;;4921338;29;20460;-74
2023/04/14 12:31:56;;;;;;;1.33;0.50;;;2.80;99.90;;;;;;4938567;29;20035;-74
2023/04/14 12:34:25;;;;;;;0.82;0.82;;;2.90;99.90;;;;;;4920812;29;20036;-74
2023/04/14 12:36:51;;;;;;;;;;;3.00;99.90;;;;;;4938704;29;20051;-73
2023/04/14 12:39:17;;;;;;;0.90;0.85;;;2.90;99.90;;;;;;4938480;29;20005;-73
2023/04/14 12:41:43;;;;;;;0.60;0.50;;;3.00;99.90;;;;;;4938621;29;20377;-75
2023/04/14 12:44:14;;;;;;;2.50;0.70;;;3.00;99.90;;;;;;4938568;29;20032;-74
2023/04/14 12:46:54;;;;;;;0.70;0.70;;;3.10;99.90;;;;;;4938651;29;20028;-74
2023/04/14 12:49:35;;;;;;;1.15;0.60;;;3.10;99.90;;;;;;4938092;29;20031;-74
2023/04/14 12:52:01;;;;;;;0.68;0.68;;;3.20;99.90;;;;;;4937987;29;20028;-74
2023/04/14 12:54:50;;;;;;;5.97;1.58;;;3.20;99.90;;;;;;4937817;29;20039;-74
2023/04/14 12:57:20;;;;;;;1.17;0.90;;;3.30;99.90;;;;;;4937957;29;20050;-72
2023/04/14 12:59:45;;;;;;;1.02;0.75;;;3.30;99.90;;;;;;4920524;29;20058;-74
2023/04/14 13:02:11;;;;;;;0.73;0.63;;;3.30;99.90;;;;;;4937849;29;20028;-73